WEATHER DATA

YESTERDAY
Time Temp. Dewp. Hum. Wind dir Wind speed Wind gust Bar. 1h Prec. 24h Prec.
00:19 14.1 10.5 79 190 0.6 1.4 1022 0.0000 0.0000
00:28 14 10.4 79 225 0.3 0.8 1022 0.0000 0.0000
00:38 14 10.4 79 270 0.6 1.7 1022 0.0000 0.0000
00:49 13.9 10.5 80 318 1.1 2.5 1022 0.0000 0.0000
00:59 13.9 10.5 80 270 0.6 1.7 1022 0.0000 0.0000
01:08 13.8 10.4 80 315 0.6 1.1 1022.1 0.0000 0.0000
01:18 13.7 10.5 81 240 0.3 0.8 1022.1 0.0000 0.0000
01:29 13.8 10.6 81 270 0.3 1.1 1022 0.0000 0.0000
01:39 13.8 10.6 81 225 0.3 0.8 1021.9 0.0000 0.0000
01:48 13.8 10.4 80 212 0.6 1.4 1021.8 0.0000 0.0000
01:59 13.7 10.5 81 270 0.3 0.8 1021.8 0.0000 0.0000
02:09 13.7 10.3 80 242 0.6 1.4 1021.8 0.0000 0.0000
02:19 13.6 10.2 80 225 0.6 1.7 1021.8 0.0000 0.0000
02:29 13.5 10.3 81 245 0.8 1.4 1021.8 0.0000 0.0000
02:39 13.5 10.3 81 221 0.3 0.8 1021.9 0.0000 0.0000
02:49 13.5 10.3 81 209 0.3 1.1 1021.8 0.0000 0.0000
02:59 13.4 10.2 81 270 0.3 1.1 1021.9 0.0000 0.0000
03:10 13.4 10.2 81 244 0.6 1.1 1021.9 0.0000 0.0000
03:19 13.4 10.2 81 220 0.6 1.4 1021.9 0.0000 0.0000
03:29 13.3 10.1 81 270 0.6 1.7 1021.9 0.0000 0.0000
03:39 13.3 10.1 81 236 0.6 1.4 1021.8 0.0000 0.0000
03:50 13.3 10.1 81 270 0.3 0.8 1021.9 0.0000 0.0000
03:59 13.3 10.1 81 195 0.3 1.1 1021.8 0.0000 0.0000
04:09 13.2 10.2 82 142 0.6 1.4 1021.8 0.0000 0.0000
04:20 13.2 10.2 82 270 0.3 0.8 1021.7 0.0000 0.0000
04:30 13.2 10 81 270 0.3 0.8 1021.7 0.0000 0.0000
04:39 13.2 10 81 270 0.3 1.1 1021.7 0.0000 0.0000
04:50 13.2 10 81 270 0.6 1.4 1021.7 0.0000 0.0000
05:00 13.2 10 81 270 0.6 1.1 1021.7 0.0000 0.0000
05:10 13.2 10.2 82 270 0.6 1.1 1021.7 0.0000 0.0000
05:19 13.1 10.1 82 225 0.3 1.1 1021.6 0.0000 0.0000
05:30 13 10 82 229 0.6 1.1 1021.6 0.0000 0.0000
05:40 13 10 82 270 0.6 1.4 1021.6 0.0000 0.0000
05:50 12.9 9.9 82 212 0.3 1.4 1021.6 0.0000 0.0000
06:00 12.9 10.1 83 217 0.3 1.1 1021.7 0.0000 0.0000
06:10 12.8 10 83 214 0.3 0.8 1021.8 0.0000 0.0000
06:20 12.8 10 83 270 0.6 1.1 1021.8 0.0000 0.0000
06:30 12.8 10 83 270 0.3 0.8 1021.8 0.0000 0.0000
06:41 12.8 10 83 270 0.3 0.8 1021.9 0.0000 0.0000
06:50 12.8 10 83 270 0.6 1.1 1021.8 0.0000 0.0000
07:00 12.8 10 83 212 0.3 0.8 1021.8 0.0000 0.0000
07:11 12.8 10 83 270 0.6 1.1 1021.9 0.0000 0.0000
07:21 12.6 10 84 245 0.6 1.4 1022 0.0000 0.0000
07:30 12.6 10 84 216 0.6 1.1 1022 0.0000 0.0000
07:40 12.5 10 85 225 0.3 0.8 1022.1 0.0000 0.0000
07:51 12.5 10 85 233 0.6 0.8 1022.1 0.0000 0.0000
08:01 12.5 10 85 232 0.8 1.4 1022.1 0.0000 0.0000
08:10 12.5 10 85 234 0.8 1.4 1022.1 0.0000 0.0000
08:21 12.7 10.2 85 233 0.3 0.8 1022.2 0.0000 0.0000
08:31 12.9 10.3 84 225 0.3 0.8 1022.2 0.0000 0.0000
08:41 13.1 10.5 84 237 0.3 0.6 1022.3 0.0000 0.0000
08:50 13.4 10.6 83 210 0.3 1.1 1022.3 0.0000 0.0000
09:01 13.9 10.7 81 210 0.3 0.8 1022.3 0.0000 0.0000
09:11 14.1 9.7 75 315 0.6 1.7 1022.3 0.0000 0.0000
09:21 14.2 9.2 72 315 0.8 2.2 1022.3 0.0000 0.0000
09:31 14.3 9.7 74 270 0.6 2.8 1022.3 0.0000 0.0000
09:41 14.5 9.3 71 302 0.8 2.2 1022.3 0.0000 0.0000
09:51 15.1 9.7 70 254 0.6 1.9 1022.4 0.0000 0.0000
10:01 15.2 9.3 68 342 0.8 1.9 1022.4 0.0000 0.0000
10:12 15.3 9.4 68 315 0.3 1.4 1022.4 0.0000 0.0000
10:21 15.4 9.5 68 318 0.3 1.4 1022.6 0.0000 0.0000
10:31 15.4 9.5 68 270 0.3 1.1 1022.5 0.0000 0.0000
10:42 15.8 9.9 68 225 0.3 0.8 1022.4 0.0000 0.0000
10:52 16.3 10.2 67 270 0.3 1.1 1022.4 0.0000 0.0000
11:01 16.6 10.2 66 225 0.3 1.1 1022.4 0.0000 0.0000
11:11 16.8 10.2 65 210 0.6 1.1 1022.4 0.0000 0.0000
11:22 16.9 9.6 62 329 0.6 1.4 1022.4 0.0000 0.0000
11:32 16.7 9.4 62 349 0.6 1.7 1022.4 0.0000 0.0000
11:41 16.8 9.7 63 270 0.3 1.4 1022.5 0.0000 0.0000
11:52 16.9 9.8 63 131 0.6 1.9 1022.5 0.0000 0.0000
12:02 16.8 9.7 63 195 0.3 0.8 1022.7 0.0000 0.0000
12:12 17.1 9.5 61 218 0.8 1.7 1022.6 0.0000 0.0000
12:22 17.7 9.6 59 240 0.6 1.7 1022.6 0.0000 0.0000
12:32 18.1 9.5 57 135 0.6 1.7 1022.6 0.0000 0.0000
12:42 18.2 9 55 101 1.1 2.8 1022.9 0.0000 0.0000
12:52 18.3 9.1 55 64 0.8 2.8 1022.7 0.0000 0.0000
13:02 18.6 9.1 54 156 0.6 1.9 1022.6 0.0000 0.0000
13:12 19.3 9.2 52 203 1.1 3.1 1022.7 0.0000 0.0000
13:22 19.6 9.5 52 108 0.8 2.5 1022.6 0.0000 0.0000
13:32 19.6 9.5 52 114 0.8 2.8 1022.5 0.0000 0.0000
13:42 19.8 9.7 52 319 0.6 1.9 1022.5 0.0000 0.0000
13:52 19.7 9.6 52 256 0.8 2.2 1022.4 0.0000 0.0000
14:02 20.1 9.4 50 140 1.4 3.6 1022.4 0.0000 0.0000
14:13 20.1 9.4 50 233 1.7 3.9 1022.3 0.0000 0.0000
14:22 19.9 8.9 49 225 1.9 3.6 1022.2 0.0000 0.0000
14:32 20.3 9.5 50 270 0.8 1.9 1022.2 0.0000 0.0000
14:43 20.7 9.6 49 219 0.8 1.9 1022.1 0.0000 0.0000
14:53 20.7 9.3 48 45 1.1 2.8 1022 0.0000 0.0000
15:02 20.9 9.8 49 315 0.6 1.9 1021.9 0.0000 0.0000
15:12 21.1 9.4 47 189 0.8 1.7 1021.8 0.0000 0.0000
15:23 20.9 9.2 47 232 1.7 2.8 1021.7 0.0000 0.0000
15:33 21.1 9.7 48 135 0.8 2.2 1021.6 0.0000 0.0000
15:43 21.2 9.8 48 225 1.1 2.5 1021.5 0.0000 0.0000
16:13 22.3 10.5 47 248 0.8 3.3 1021.4 0.0000 0.0000
16:33 22.6 10.7 47 171 0.6 1.7 1021.4 0.0000 0.0000
16:43 22.7 10.5 46 90 0.8 2.5 1021.4 0.0000 0.0000
16:53 22.3 10.5 47 307 0.6 1.4 1021.4 0.0000 0.0000
17:04 22.1 10.6 48 299 0.8 2.2 1021.2 0.0000 0.0000
17:13 21.9 10.7 49 315 0.8 2.2 1021.2 0.0000 0.0000
17:23 21.9 11 50 251 0.8 2.2 1021.1 0.0000 0.0000
17:33 22 11.1 50 180 0.6 1.7 1021.1 0.0000 0.0000
17:44 21.9 11 50 338 0.6 2.5 1021.1 0.0000 0.0000
17:53 21.6 11.3 52 206 0.6 1.9 1021.1 0.0000 0.0000
18:03 21.5 11.2 52 90 0.8 2.8 1021.1 0.0000 0.0000
18:14 21.5 11.2 52 90 0.6 1.7 1021.1 0.0000 0.0000
18:24 21.5 11.2 52 270 0.8 2.8 1021.1 0.0000 0.0000
18:33 21.8 11.2 51 284 0.8 3.3 1021.1 0.0000 0.0000
18:43 21.9 11.3 51 270 0.3 1.4 1021 0.0000 0.0000
18:54 21.8 10.9 50 320 1.1 3.9 1021 0.0000 0.0000
19:04 21.7 11.1 51 295 0.8 2.5 1021 0.0000 0.0000
19:13 21.6 11.3 52 270 0.8 2.8 1021.1 0.0000 0.0000
19:24 21.3 11.3 53 270 0.6 1.4 1021.1 0.0000 0.0000
19:34 20.9 11.3 54 298 0.8 2.8 1021 0.0000 0.0000
19:44 20.6 11.3 55 79 0.8 2.5 1021 0.0000 0.0000
19:54 20.3 11 55 322 0.8 3.3 1021.2 0.0000 0.0000
20:04 20.1 11.1 56 321 1.1 3.3 1021.2 0.0000 0.0000
20:14 19.9 11.1 57 336 1.1 3.3 1021.4 0.0000 0.0000
20:24 19.6 11.1 58 318 1.1 3.1 1021.5 0.0000 0.0000
20:34 19.4 11.2 59 325 0.8 3.1 1021.6 0.0000 0.0000
20:44 19.1 11.2 60 321 0.8 3.3 1021.8 0.0000 0.0000
20:54 18.9 11.5 62 322 0.8 2.8 1021.8 0.0000 0.0000
21:04 18.6 11.4 63 327 0.8 2.5 1021.9 0.0000 0.0000
21:14 18.3 11.1 63 318 0.6 1.9 1022 0.0000 0.0000
21:24 17.9 11.2 65 324 0.6 1.1 1022.1 0.0000 0.0000
21:34 17.5 11.1 66 319 0.6 1.4 1022.1 0.0000 0.0000
21:45 17.2 11 67 322 0.3 1.1 1022.2 0.0000 0.0000
21:54 16.9 10.7 67 225 0.3 0.6 1022.4 0.0000 0.0000
22:04 16.7 10.8 68 221 0.3 1.1 1022.4 0.0000 0.0000
22:15 16.4 10.7 69 225 0.3 0.8 1022.6 0.0000 0.0000
22:25 16.1 10.6 70 207 0.3 0.8 1022.6 0.0000 0.0000
22:34 15.8 10.3 70 225 0.3 0.8 1023 0.0000 0.0000
22:44 15.6 10.4 71 225 0.3 0.8 1023.2 0.0000 0.0000
22:55 15.4 10.6 73 289 0.6 1.1 1023.3 0.0000 0.0000
23:05 15.1 10.3 73 213 0.3 1.1 1023.4 0.0000 0.0000
23:14 14.9 10.3 74 270 0.3 0.6 1023.4 0.0000 0.0000
23:25 14.7 10.1 74 212 0.6 1.1 1023.5 0.0000 0.0000
23:35 14.4 10 75 229 0.3 0.8 1023.5 0.0000 0.0000
23:45 14.2 10 76 0 0.3 1023.6 0.0000 0.0000
23:55 14 10.2 78 270 0.3 1.1 1023.7 0.0000

DAY STATISTIC

2020-07-03
TEMPERATURE
AVERAGE
16.6
HIGH
22.7
16:43
LOW
12.5
07:40
PRESSURE
AVERAGE
1022.0
HIGH
1023.7
23:55
LOW
1021.0
18:43
DEWPOINT
AVERAGE
10.2
HIGH
11.5
20:54
LOW
8.9
14:22
HUMIDITY
AVERAGE
68
HIGH
85
07:40
LOW
46
16:43
WIND SPEED
AVERAGE
0.6
HIGH
1.9
14:22
WIND GUST
AVERAGE
1.7
HIGH
3.9
14:13
WIND DIRECTION
PREVAILING
SW
35.3%
N
2.2
NE
1.4
E
4.3
SE
5.0
S
5.0
SW
35.3
W
25.9
NW
20.1
PRECIPITATION
RAIN HOUR
0.0
RAIN DAY
0.0
TEMPERATURE (°C)
LOW
12.5
HIGH
22.7
AVERAGE
16.6
PRESSURE (hpa)
LOW
1021.0
HIGH
1023.7
AVERAGE
1022.0
DEVICE